createdAt,value
2023-02-19T00:02:08.573Z,85.87
2023-02-19T00:04:39.242Z,86.20
2023-02-19T00:07:09.737Z,85.72
2023-02-19T00:09:41.512Z,85.89
2023-02-19T00:12:12.022Z,85.90
2023-02-19T00:14:43.504Z,86.07
2023-02-19T00:17:14.014Z,85.65
2023-02-19T00:19:44.736Z,85.78
2023-02-19T00:22:16.303Z,86.03
2023-02-19T00:24:49.215Z,85.76
2023-02-19T00:27:20.652Z,85.79
2023-02-19T00:29:52.429Z,85.76
2023-02-19T00:32:24.379Z,85.77
2023-02-19T00:34:54.770Z,85.57
2023-02-19T00:37:25.367Z,85.75
2023-02-19T00:39:56.039Z,85.92
2023-02-19T00:42:26.508Z,85.95
2023-02-19T00:44:59.531Z,86.15
2023-02-19T00:47:30.163Z,86.28
2023-02-19T00:50:00.558Z,86.15
2023-02-19T00:52:31.568Z,86.26
2023-02-19T00:55:02.065Z,86.17
2023-02-19T00:57:32.564Z,86.37
2023-02-19T01:00:03.181Z,86.58
2023-02-19T01:02:34.499Z,86.76
2023-02-19T01:05:05.499Z,86.65
2023-02-19T01:07:37.955Z,86.54
2023-02-19T01:10:08.505Z,86.44
2023-02-19T01:12:38.991Z,86.44
2023-02-19T01:15:10.074Z,86.61
2023-02-19T01:17:43.198Z,86.71
2023-02-19T01:20:13.848Z,86.90
2023-02-19T01:22:45.981Z,86.99
2023-02-19T01:25:16.713Z,87.23
2023-02-19T01:27:47.814Z,87.14
2023-02-19T01:30:20.125Z,87.19
2023-02-19T01:32:50.624Z,87.27
2023-02-19T01:35:23.883Z,87.55
2023-02-19T01:37:54.328Z,87.58
2023-02-19T01:40:27.395Z,87.92
2023-02-19T01:42:59.424Z,88.04
2023-02-19T01:45:32.900Z,88.04
2023-02-19T01:48:28.647Z,88.07
2023-02-19T01:51:08.748Z,88.07
2023-02-19T01:53:43.196Z,87.98
2023-02-19T01:56:17.528Z,88.08
2023-02-19T01:58:48.819Z,87.98
2023-02-19T02:01:20.498Z,87.79
2023-02-19T02:03:52.182Z,87.57
2023-02-19T02:06:28.772Z,87.38
2023-02-19T02:09:18.063Z,87.13
2023-02-19T02:11:53.583Z,87.30
2023-02-19T02:14:31.997Z,87.29
2023-02-19T02:17:20.591Z,87.44
2023-02-19T02:20:11.533Z,87.62
2023-02-19T02:23:00.675Z,87.50
2023-02-19T02:26:07.934Z,87.47
2023-02-19T02:29:10.179Z,87.50
2023-02-19T02:31:43.953Z,87.18
2023-02-19T02:34:17.542Z,86.46
2023-02-19T02:36:52.456Z,86.54
2023-02-19T02:39:26.795Z,86.74
2023-02-19T02:42:18.706Z,86.30
2023-02-19T02:45:07.058Z,86.45
2023-02-19T02:47:47.341Z,86.60
2023-02-19T02:50:23.952Z,86.52
2023-02-19T02:53:20.240Z,86.70
2023-02-19T02:55:55.224Z,87.08
2023-02-19T02:58:29.646Z,87.01
2023-02-19T03:01:30.232Z,87.28
2023-02-19T03:04:09.121Z,87.33
2023-02-19T03:06:42.584Z,87.73
2023-02-19T03:09:18.991Z,87.86
2023-02-19T03:12:10.896Z,87.27
2023-02-19T03:15:07.199Z,87.26
2023-02-19T03:18:03.180Z,87.23
2023-02-19T03:20:35.433Z,87.27
2023-02-19T03:23:09.079Z,87.35
2023-02-19T03:25:59.912Z,87.49
2023-02-19T03:28:51.785Z,87.75
2023-02-19T03:31:25.420Z,87.43
2023-02-19T03:33:59.122Z,87.73
2023-02-19T03:36:35.310Z,87.33
2023-02-19T03:39:09.622Z,87.26
2023-02-19T03:41:48.332Z,87.18
2023-02-19T03:44:27.472Z,87.58
2023-02-19T03:47:07.030Z,86.90
2023-02-19T03:49:52.441Z,87.22
2023-02-19T03:52:38.528Z,87.51
2023-02-19T03:55:12.060Z,87.40
2023-02-19T03:57:59.204Z,87.78
2023-02-19T04:00:43.120Z,87.78
2023-02-19T04:03:25.295Z,87.97
2023-02-19T04:05:59.925Z,87.99
2023-02-19T04:08:32.525Z,88.19
2023-02-19T04:11:05.540Z,88.07
2023-02-19T04:13:52.736Z,88.14
2023-02-19T04:16:28.546Z,88.13
2023-02-19T04:19:02.227Z,88.30
2023-02-19T04:21:35.212Z,88.40
2023-02-19T04:24:11.802Z,88.36
2023-02-19T04:26:46.237Z,88.48
2023-02-19T04:29:16.728Z,88.76
2023-02-19T04:31:50.109Z,88.53
2023-02-19T04:34:20.684Z,88.23
2023-02-19T04:36:51.329Z,88.18
2023-02-19T04:39:23.139Z,88.29
2023-02-19T04:41:55.285Z,88.12
2023-02-19T04:44:27.410Z,88.25
2023-02-19T04:46:57.925Z,88.66
2023-02-19T04:49:28.774Z,88.80
2023-02-19T04:51:59.577Z,88.82
2023-02-19T04:54:33.943Z,88.73
2023-02-19T04:57:03.734Z,88.68
2023-02-19T04:59:35.318Z,88.85
2023-02-19T05:02:06.112Z,89.03
2023-02-19T05:04:36.510Z,89.20
2023-02-19T05:07:07.147Z,89.28
2023-02-19T05:09:40.193Z,89.20
2023-02-19T05:12:12.070Z,89.12
2023-02-19T05:14:42.761Z,89.13
2023-02-19T05:17:14.960Z,89.26
2023-02-19T05:19:46.768Z,89.41
2023-02-19T05:22:18.921Z,89.41
2023-02-19T05:24:49.795Z,89.36
2023-02-19T05:27:20.435Z,89.44
2023-02-19T05:29:51.397Z,89.64
2023-02-19T05:32:21.986Z,89.71
2023-02-19T05:34:53.238Z,89.56
2023-02-19T05:37:23.740Z,89.49
2023-02-19T05:39:55.873Z,89.36
2023-02-19T05:42:26.401Z,89.47
2023-02-19T05:44:57.166Z,89.41
2023-02-19T05:47:27.763Z,89.40
2023-02-19T05:49:58.243Z,89.34
2023-02-19T05:52:28.922Z,89.00
2023-02-19T05:54:59.506Z,89.09
2023-02-19T05:57:31.654Z,89.07
2023-02-19T06:00:02.078Z,89.23
2023-02-19T06:02:32.681Z,88.89
2023-02-19T06:05:03.138Z,88.97
2023-02-19T06:07:34.461Z,89.02
2023-02-19T06:10:05.230Z,88.95
2023-02-19T06:12:40.704Z,88.97
2023-02-19T06:15:11.261Z,89.21
2023-02-19T06:17:43.396Z,89.16
2023-02-19T06:20:14.644Z,88.97
2023-02-19T06:22:52.006Z,88.90
2023-02-19T06:25:24.896Z,88.52
2023-02-19T06:27:55.429Z,88.61
2023-02-19T06:30:26.062Z,88.80
2023-02-19T06:32:56.688Z,88.47
2023-02-19T06:35:27.510Z,88.36
2023-02-19T06:37:58.081Z,88.40
2023-02-19T06:40:33.113Z,88.49
2023-02-19T06:43:05.478Z,88.21
2023-02-19T06:45:36.148Z,88.20
2023-02-19T06:48:06.845Z,88.08
2023-02-19T06:50:37.578Z,87.92
2023-02-19T06:53:11.377Z,88.09
2023-02-19T06:55:42.903Z,88.19
2023-02-19T06:58:13.433Z,88.19
2023-02-19T07:00:45.287Z,88.17
2023-02-19T07:03:15.754Z,88.24
2023-02-19T07:05:47.681Z,88.27
2023-02-19T07:08:19.600Z,87.93
2023-02-19T07:11:01.459Z,87.86
2023-02-19T07:13:32.048Z,87.37
2023-02-19T07:16:05.147Z,87.27
2023-02-19T07:18:37.479Z,87.18
2023-02-19T07:21:11.221Z,86.37
2023-02-19T07:23:42.975Z,86.41
2023-02-19T07:26:16.548Z,85.85
2023-02-19T07:28:51.964Z,85.51
2023-02-19T07:31:25.036Z,85.13
2023-02-19T07:33:56.543Z,85.50
2023-02-19T07:36:27.062Z,85.48
2023-02-19T07:38:58.932Z,85.76
2023-02-19T07:41:29.767Z,85.39
2023-02-19T07:44:00.410Z,84.99
2023-02-19T07:46:32.970Z,85.14
2023-02-19T07:49:06.564Z,85.61
2023-02-19T07:51:39.937Z,85.68
2023-02-19T07:54:12.925Z,85.43
2023-02-19T07:56:43.603Z,85.82
2023-02-19T07:59:15.894Z,85.63
2023-02-19T08:02:05.856Z,85.38
2023-02-19T08:04:36.375Z,85.30
2023-02-19T08:07:07.103Z,85.18
2023-02-19T08:09:39.287Z,85.11
2023-02-19T08:12:30.365Z,84.67
2023-02-19T08:15:01.098Z,84.64
2023-02-19T08:17:32.269Z,84.80
2023-02-19T08:20:02.870Z,84.74
2023-02-19T08:22:33.268Z,84.87
2023-02-19T08:25:03.879Z,84.84
2023-02-19T08:27:37.001Z,84.57
2023-02-19T08:30:13.443Z,84.20
2023-02-19T08:32:44.732Z,84.57
2023-02-19T08:35:15.412Z,84.45
2023-02-19T08:37:47.907Z,83.63
2023-02-19T08:40:18.765Z,83.80
2023-02-19T08:42:49.613Z,83.48
2023-02-19T08:45:20.165Z,82.87
2023-02-19T08:47:50.778Z,82.66
2023-02-19T08:50:22.414Z,82.43
2023-02-19T08:52:56.398Z,82.00
2023-02-19T08:55:26.843Z,82.28
2023-02-19T08:57:59.313Z,81.25
2023-02-19T09:00:29.726Z,81.33
2023-02-19T09:03:01.534Z,80.48
2023-02-19T09:05:32.125Z,80.83
2023-02-19T09:08:04.228Z,80.53
2023-02-19T09:10:35.960Z,80.36
2023-02-19T09:13:07.298Z,79.97
2023-02-19T09:15:39.814Z,80.27
2023-02-19T09:18:12.800Z,78.88
2023-02-19T09:20:45.560Z,79.47
2023-02-19T09:23:16.012Z,79.43
2023-02-19T09:25:46.649Z,79.72
2023-02-19T09:28:17.221Z,78.95
2023-02-19T09:30:48.315Z,79.12
2023-02-19T09:33:20.688Z,79.20
2023-02-19T09:35:51.135Z,79.28
2023-02-19T09:38:21.528Z,78.96
2023-02-19T09:40:53.181Z,79.11
2023-02-19T09:43:25.993Z,79.41
2023-02-19T09:46:05.587Z,78.86
2023-02-19T09:48:37.441Z,77.63
2023-02-19T09:51:12.121Z,78.19
2023-02-19T09:53:45.804Z,77.22
2023-02-19T09:56:17.860Z,76.21
2023-02-19T09:58:53.056Z,76.12
2023-02-19T10:01:30.084Z,76.62
2023-02-19T10:04:00.849Z,75.70
2023-02-19T10:06:34.220Z,74.13
2023-02-19T10:09:27.133Z,73.98
2023-02-19T10:12:00.273Z,74.52
2023-02-19T10:14:38.018Z,75.51
2023-02-19T10:17:10.426Z,75.10
2023-02-19T10:19:41.382Z,74.46
2023-02-19T10:22:14.259Z,74.20
2023-02-19T10:24:47.202Z,73.91
2023-02-19T10:27:17.709Z,73.36
2023-02-19T10:29:51.177Z,72.01
2023-02-19T10:32:24.758Z,71.50
2023-02-19T10:35:12.747Z,72.14
2023-02-19T10:37:49.646Z,72.08
2023-02-19T10:40:26.532Z,72.61
2023-02-19T10:43:04.393Z,72.53
2023-02-19T10:45:44.096Z,72.76
2023-02-19T10:48:25.963Z,71.54
2023-02-19T10:51:00.039Z,70.71
2023-02-19T10:53:45.887Z,70.54
2023-02-19T10:56:26.632Z,70.17
2023-02-19T10:59:21.432Z,69.14
2023-02-19T11:02:07.778Z,68.61
2023-02-19T11:04:41.883Z,69.74
2023-02-19T11:07:18.408Z,68.94
2023-02-19T11:09:52.915Z,66.74
2023-02-19T11:12:33.773Z,66.47
2023-02-19T11:15:16.402Z,67.64
2023-02-19T11:17:49.615Z,67.76
2023-02-19T11:20:22.080Z,66.70
2023-02-19T11:22:53.233Z,65.97
2023-02-19T11:25:25.841Z,67.02
2023-02-19T11:28:08.369Z,66.71
2023-02-19T11:30:44.244Z,66.69
2023-02-19T11:33:21.804Z,67.88
2023-02-19T11:36:04.322Z,68.18
2023-02-19T11:38:34.440Z,67.47
2023-02-19T11:41:24.634Z,67.25
2023-02-19T11:44:19.720Z,67.56
2023-02-19T11:47:08.460Z,66.82
2023-02-19T11:50:13.073Z,66.47
2023-02-19T11:53:04.777Z,65.04
2023-02-19T11:55:53.853Z,64.11
2023-02-19T11:58:45.852Z,62.92
2023-02-19T12:01:54.565Z,63.54
2023-02-19T12:04:57.211Z,62.20
2023-02-19T12:07:55.485Z,62.04
2023-02-19T12:10:34.917Z,62.32
2023-02-19T12:13:08.519Z,62.41
2023-02-19T12:16:01.813Z,61.92
2023-02-19T12:18:55.915Z,62.22
2023-02-19T12:21:41.398Z,63.00
2023-02-19T12:24:16.444Z,63.35
2023-02-19T12:27:13.226Z,63.49
2023-02-19T12:30:01.760Z,63.41
2023-02-19T12:32:44.420Z,63.91
2023-02-19T12:35:29.468Z,62.46
2023-02-19T12:38:11.896Z,62.87
2023-02-19T12:41:03.748Z,63.63
2023-02-19T12:43:35.701Z,64.37
2023-02-19T12:46:09.914Z,64.87
2023-02-19T12:48:43.783Z,64.58
2023-02-19T12:51:23.445Z,63.40
2023-02-19T12:54:08.672Z,63.03
2023-02-19T12:56:51.032Z,63.01
2023-02-19T12:59:44.331Z,61.63
2023-02-19T13:02:23.804Z,61.69
2023-02-19T13:05:01.216Z,60.01
2023-02-19T13:07:35.035Z,59.90
2023-02-19T13:10:24.998Z,60.82
2023-02-19T13:12:58.936Z,60.63
2023-02-19T13:15:41.920Z,59.02
2023-02-19T13:18:15.521Z,58.10
2023-02-19T13:20:47.850Z,59.31
2023-02-19T13:23:50.946Z,59.38
2023-02-19T13:26:33.413Z,59.85
2023-02-19T13:29:41.846Z,60.16
2023-02-19T13:32:24.428Z,58.63
2023-02-19T13:34:58.089Z,58.60
2023-02-19T13:37:33.211Z,57.72
2023-02-19T13:40:29.220Z,57.20
2023-02-19T13:43:03.511Z,57.99
2023-02-19T13:45:39.726Z,57.89
2023-02-19T13:48:28.229Z,58.38
2023-02-19T13:51:23.881Z,57.55
2023-02-19T13:53:59.857Z,57.53
2023-02-19T13:56:36.041Z,57.31
2023-02-19T13:59:32.301Z,56.72
2023-02-19T14:02:05.696Z,57.24
2023-02-19T14:04:47.327Z,57.63
2023-02-19T14:07:29.380Z,58.09
2023-02-19T14:10:01.838Z,57.96
2023-02-19T14:12:35.330Z,58.44
2023-02-19T14:15:44.723Z,58.78
2023-02-19T14:18:46.540Z,59.34
2023-02-19T14:21:20.151Z,59.56
2023-02-19T14:24:00.506Z,58.58
2023-02-19T14:26:33.723Z,57.28
2023-02-19T14:29:08.175Z,57.21
2023-02-19T14:31:41.750Z,57.74
2023-02-19T14:34:25.994Z,56.97
2023-02-19T14:37:01.682Z,56.59
2023-02-19T14:39:35.080Z,56.70
2023-02-19T14:42:26.653Z,57.39
2023-02-19T14:45:00.714Z,57.71
2023-02-19T14:47:37.473Z,57.40
2023-02-19T14:50:16.859Z,58.42
2023-02-19T14:52:53.086Z,59.04
2023-02-19T14:55:36.203Z,59.01
2023-02-19T14:58:10.924Z,59.34
2023-02-19T15:00:43.444Z,59.54
2023-02-19T15:03:35.091Z,59.46
2023-02-19T15:06:08.655Z,59.68
2023-02-19T15:08:48.062Z,60.39
2023-02-19T15:11:21.621Z,59.81
2023-02-19T15:13:56.268Z,59.95
2023-02-19T15:16:30.709Z,59.50
2023-02-19T15:19:01.522Z,58.48
2023-02-19T15:21:39.836Z,58.04
2023-02-19T15:24:11.967Z,58.12
2023-02-19T15:26:46.541Z,57.85
2023-02-19T15:29:19.681Z,58.25
2023-02-19T15:31:54.175Z,57.41
2023-02-19T15:34:30.160Z,58.10
2023-02-19T15:37:09.668Z,58.49
2023-02-19T15:39:46.371Z,58.84
2023-02-19T15:42:19.977Z,59.44
2023-02-19T15:44:56.964Z,59.43
2023-02-19T15:47:32.118Z,59.60
2023-02-19T15:50:28.384Z,59.32
2023-02-19T15:53:16.940Z,59.83
2023-02-19T15:55:50.300Z,60.18
2023-02-19T15:58:29.693Z,60.82
2023-02-19T16:01:11.086Z,61.09
2023-02-19T16:03:43.544Z,61.34
2023-02-19T16:06:16.947Z,61.39
2023-02-19T16:09:04.633Z,61.96
2023-02-19T16:11:44.695Z,61.58
2023-02-19T16:14:26.978Z,61.35
2023-02-19T16:17:13.340Z,61.65
2023-02-19T16:19:58.855Z,61.48
2023-02-19T16:22:32.354Z,61.56
2023-02-19T16:25:05.882Z,62.00
2023-02-19T16:27:41.537Z,61.97
2023-02-19T16:30:25.504Z,62.43
2023-02-19T16:33:33.070Z,63.07
2023-02-19T16:36:28.748Z,63.04
2023-02-19T16:39:12.978Z,62.91
2023-02-19T16:41:51.190Z,63.93
2023-02-19T16:44:35.049Z,63.82
2023-02-19T16:47:08.648Z,64.22
2023-02-19T16:49:40.422Z,64.33
2023-02-19T16:52:16.845Z,64.57
2023-02-19T16:54:49.312Z,64.62
2023-02-19T16:57:20.651Z,65.28
2023-02-19T16:59:51.143Z,65.24
2023-02-19T17:02:23.651Z,65.60
2023-02-19T17:04:55.546Z,66.14
2023-02-19T17:07:27.525Z,66.22
2023-02-19T17:09:58.038Z,66.28
2023-02-19T17:12:28.492Z,66.33
2023-02-19T17:14:59.077Z,66.24
2023-02-19T17:17:29.558Z,66.58
2023-02-19T17:20:00.057Z,66.69
2023-02-19T17:22:30.705Z,66.95
2023-02-19T17:25:01.152Z,67.27
2023-02-19T17:27:31.770Z,67.69
2023-02-19T17:30:02.882Z,67.64
2023-02-19T17:32:33.611Z,67.41
2023-02-19T17:35:04.150Z,68.00
2023-02-19T17:37:34.526Z,68.23
2023-02-19T17:40:07.529Z,68.59
2023-02-19T17:42:38.002Z,68.86
2023-02-19T17:45:09.265Z,68.90
2023-02-19T17:47:39.679Z,68.88
2023-02-19T17:50:18.952Z,68.64
2023-02-19T17:52:49.363Z,68.03
2023-02-19T17:55:20.625Z,68.06
2023-02-19T17:57:53.049Z,68.24
2023-02-19T18:00:27.064Z,67.91
2023-02-19T18:02:57.522Z,68.10
2023-02-19T18:05:27.947Z,67.88
2023-02-19T18:07:59.182Z,67.82
2023-02-19T18:10:30.476Z,67.58
2023-02-19T18:13:00.960Z,68.33
2023-02-19T18:15:32.652Z,68.57
2023-02-19T18:18:04.894Z,68.44
2023-02-19T18:20:35.253Z,68.91
2023-02-19T18:23:05.917Z,69.01
2023-02-19T18:25:36.366Z,68.60
2023-02-19T18:28:07.676Z,68.66
2023-02-19T18:30:38.291Z,69.01
2023-02-19T18:33:10.453Z,68.68
2023-02-19T18:35:41.628Z,68.75
2023-02-19T18:38:12.636Z,68.82
2023-02-19T18:40:43.145Z,68.83
2023-02-19T18:43:14.007Z,68.45
2023-02-19T18:45:46.341Z,68.61
2023-02-19T18:48:17.156Z,68.67
2023-02-19T18:50:48.021Z,68.76
2023-02-19T18:53:18.502Z,68.82
2023-02-19T18:55:50.842Z,69.02
2023-02-19T18:58:21.789Z,69.26
2023-02-19T19:00:52.628Z,69.12
2023-02-19T19:03:22.994Z,69.18
2023-02-19T19:05:53.392Z,68.90
2023-02-19T19:08:23.844Z,69.53
2023-02-19T19:10:54.253Z,69.61
2023-02-19T19:13:25.433Z,69.46
2023-02-19T19:15:56.310Z,69.87
2023-02-19T19:18:27.802Z,70.33
2023-02-19T19:21:00.832Z,70.50
2023-02-19T19:23:32.423Z,70.35
2023-02-19T19:26:04.497Z,70.38
2023-02-19T19:28:34.977Z,70.15
2023-02-19T19:31:06.885Z,69.95
2023-02-19T19:33:38.978Z,70.02
2023-02-19T19:36:11.010Z,70.21
2023-02-19T19:38:41.868Z,70.62
2023-02-19T19:41:17.770Z,70.66
2023-02-19T19:43:48.368Z,70.65
2023-02-19T19:46:21.991Z,70.33
2023-02-19T19:48:54.367Z,70.07
2023-02-19T19:51:30.454Z,70.53
2023-02-19T19:54:04.432Z,70.07
2023-02-19T19:56:38.827Z,70.42
2023-02-19T19:59:18.877Z,70.19
2023-02-19T20:01:52.568Z,70.32
2023-02-19T20:04:24.098Z,70.71
2023-02-19T20:06:58.030Z,71.01
2023-02-19T20:09:29.186Z,71.37
2023-02-19T20:11:59.688Z,71.12
2023-02-19T20:14:31.852Z,71.15
2023-02-19T20:17:03.147Z,71.06
2023-02-19T20:19:33.811Z,71.45
2023-02-19T20:22:04.543Z,71.84
2023-02-19T20:24:35.832Z,71.99
2023-02-19T20:27:06.488Z,71.51
2023-02-19T20:29:37.267Z,71.20
2023-02-19T20:32:08.762Z,71.85
2023-02-19T20:34:40.091Z,71.98
2023-02-19T20:37:10.562Z,71.83
2023-02-19T20:39:41.050Z,72.25
2023-02-19T20:42:11.538Z,71.87
2023-02-19T20:44:44.083Z,71.94
2023-02-19T20:47:14.641Z,72.19
2023-02-19T20:49:47.028Z,72.17
2023-02-19T20:52:19.382Z,71.88
2023-02-19T20:54:50.289Z,72.12
2023-02-19T20:57:21.334Z,71.58
2023-02-19T20:59:54.486Z,72.47
2023-02-19T21:02:29.017Z,72.36
2023-02-19T21:05:00.863Z,72.25
2023-02-19T21:07:31.518Z,72.61
2023-02-19T21:10:01.964Z,72.64
2023-02-19T21:12:34.411Z,72.53
2023-02-19T21:15:06.064Z,72.55
2023-02-19T21:17:37.469Z,73.10
2023-02-19T21:20:10.645Z,73.39
2023-02-19T21:22:42.619Z,73.68
2023-02-19T21:25:14.582Z,74.11
2023-02-19T21:27:44.998Z,74.67
2023-02-19T21:30:15.525Z,74.30
2023-02-19T21:32:45.983Z,74.55
2023-02-19T21:35:16.651Z,74.46
2023-02-19T21:37:48.914Z,74.92
2023-02-19T21:40:21.087Z,74.77
2023-02-19T21:42:53.714Z,74.56
2023-02-19T21:45:25.577Z,74.64
2023-02-19T21:47:58.229Z,74.30
2023-02-19T21:50:29.774Z,74.69
2023-02-19T21:53:01.315Z,74.27
2023-02-19T21:55:32.122Z,74.41
2023-02-19T21:58:04.374Z,73.85
2023-02-19T22:00:34.759Z,73.71
2023-02-19T22:03:06.454Z,74.30
2023-02-19T22:05:37.003Z,74.33
2023-02-19T22:08:08.565Z,74.24
2023-02-19T22:10:40.920Z,74.47
2023-02-19T22:13:11.966Z,74.53
2023-02-19T22:15:42.408Z,74.69
2023-02-19T22:18:15.305Z,75.05
2023-02-19T22:20:45.764Z,75.07
2023-02-19T22:23:16.428Z,75.37
2023-02-19T22:25:51.881Z,77.88
2023-02-19T22:28:22.295Z,77.71
2023-02-19T22:30:53.200Z,75.76
2023-02-19T22:33:24.204Z,73.65
2023-02-19T22:35:57.377Z,72.09
2023-02-19T22:38:28.414Z,71.60
2023-02-19T22:40:59.283Z,70.05
2023-02-19T22:43:30.553Z,70.60
2023-02-19T22:46:00.943Z,72.53
2023-02-19T22:48:32.213Z,73.87
2023-02-19T22:51:02.990Z,75.34
2023-02-19T22:53:33.459Z,75.63
2023-02-19T22:56:04.993Z,75.92
2023-02-19T22:58:35.764Z,76.81
2023-02-19T23:01:06.240Z,77.07
2023-02-19T23:03:52.511Z,77.38
2023-02-19T23:06:31.706Z,77.82
2023-02-19T23:09:10.378Z,77.71
2023-02-19T23:11:42.285Z,77.59
2023-02-19T23:14:16.531Z,77.87
2023-02-19T23:16:47.066Z,78.21
2023-02-19T23:19:17.901Z,78.30
2023-02-19T23:21:50.060Z,78.56
2023-02-19T23:24:21.653Z,79.15
2023-02-19T23:26:53.589Z,79.08
2023-02-19T23:29:26.539Z,79.17
2023-02-19T23:31:57.248Z,79.51
2023-02-19T23:34:27.797Z,79.39
2023-02-19T23:37:00.019Z,79.18
2023-02-19T23:39:33.055Z,79.03
2023-02-19T23:42:03.598Z,79.53
2023-02-19T23:44:34.501Z,79.66
2023-02-19T23:47:04.915Z,79.55
2023-02-19T23:49:37.876Z,79.49
2023-02-19T23:52:08.608Z,79.39
2023-02-19T23:54:41.718Z,79.52
2023-02-19T23:57:12.942Z,79.42
2023-02-19T23:59:44.732Z,79.85
